Arcata, CA (95519)

9:57 PM PDT on October 21, 2014 (GMT -0700)
APRSWXNET Arcata CA US | Change Station
CLOSE
Current Station
Personal Weather Station
Location: Arcata, CA
Elevation: 183 ft
Nearby Weather Stations

Elev 183 ft 40.88 °N, 124.08 °W | Updated 27 minutes ago

Clear
Clear
54.0 °F
Feels Like 54.0 °F
N
2.0
Wind Variable Wind from East
Gusts 3.0 mph

Today
High -- | Low -- °F
--% Chance of Precip.
Yesterday
High -- | Low -- °F
Precip. -- in
7:34 AM 6:26 PM
Waning Crescent, 3% visible
Pressure 30.04 in
Visibility 10.0 miles
Clouds Clear
Dew Point 52.0 °F
Humidity 94%
Rainfall 0.07 in
Snow Depth Not available.
UV 0 out of 12
Pollen 2.60 out of 12
Air Quality Not available.
Flu Activity Sporadic
METAR KACV 220453Z AUTO 14006KT 10SM CLR 14/10 A3002 RMK AO2 SLP170 T01390100

More Conditions Fewer Conditions

Pressure 30.04 in
Visibility 10.0 miles
Clouds Clear
Dew Point 52.0 °F
Humidity 94%
Rainfall 0.07 in
Snow Depth Not available.
UV 0 out of 12
Pollen 2.60 out of 12
Air Quality Not available.
Flu Activity Sporadic
METAR KACV 220453Z AUTO 14006KT 10SM CLR 14/10 A3002 RMK AO2 SLP170 T01390100

More Conditions Fewer Conditions

10-Day Weather Forecast

Almanac

Astronomy

Oct. 21, 2014 Rise Set
Actual Time 7:34 AM PDT 6:26 PM PDT
Civil Twilight 7:06 AM PDT 6:54 PM PDT
Nautical Twilight 6:34 AM PDT 7:26 PM PDT
Astronomical Twilight 6:02 AM PDT 7:58 PM PDT
Moon 5:23 AM PDT (10/21) 5:24 PM PDT (10/21)
Length of Visible Light 11h 48m
Length of Day
10h 52m
Tomorrow will be 2m 32s shorter.
Waning Crescent, 3% of the Moon is Illuminated
Oct 22
Waning Crescent
Oct 23
New
Oct 30
First Quarter
Nov 6
Full
Nov 14
Last Quarter

Yesterday's Extremes

State Highs State Lows

Community

WunderPhotos

Upload Photos

1,763,882 photos uploaded!

Nearby

Snow Depth

Station Depth Elevation
Adin Mountain 0 in 6200 ft
Independence Lake 0 in 8450 ft
CSS Lab 1 in 6900 ft
Independence Camp 0 in 7000 ft
Squaw Valley 0 in 8200 ft

Earthquake Activity

City Distance Mag. Time & Date
Crescent City, California 72 miles 2.6 1:22 AM PDT
2014-10-21
Rio Dell, California 44 miles 4.2 7:24 AM PDT
2014-10-19
Minimum magnitude displayed is 2.5.

Coastal Water Temperatures

Place Temperature
North Spit, CA 60.1 °F
Crescent City, CA 60.1 °F

Nearby Weather Stations